createdAt,value
2018-04-22T00:02:05.125Z,55.20
2018-04-22T00:06:56.012Z,55.30
2018-04-22T00:11:46.900Z,55.20
2018-04-22T00:16:37.806Z,55.30
2018-04-22T00:21:28.722Z,55.30
2018-04-22T00:26:19.631Z,55.20
2018-04-22T00:31:10.570Z,55.30
2018-04-22T00:36:01.490Z,55.40
2018-04-22T00:40:52.409Z,55.40
2018-04-22T00:45:43.295Z,55.40
2018-04-22T00:50:34.193Z,55.60
2018-04-22T00:55:25.828Z,55.50
2018-04-22T01:00:17.455Z,55.50
2018-04-22T01:05:08.336Z,55.50
2018-04-22T01:09:59.225Z,55.50
2018-04-22T01:14:50.123Z,55.60
2018-04-22T01:19:41.759Z,55.60
2018-04-22T01:24:33.455Z,55.70
2018-04-22T01:29:24.339Z,55.70
2018-04-22T01:34:15.235Z,55.70
2018-04-22T01:39:06.863Z,55.80
2018-04-22T01:43:58.484Z,55.80
2018-04-22T01:48:49.367Z,55.80
2018-04-22T01:53:40.243Z,55.80
2018-04-22T01:58:31.875Z,55.90
2018-04-22T02:03:23.504Z,56.00
2018-04-22T02:08:14.400Z,55.90
2018-04-22T02:13:05.279Z,55.90
2018-04-22T02:17:57.244Z,56.00
2018-04-22T02:22:48.163Z,56.00
2018-04-22T02:27:39.099Z,56.00
2018-04-22T02:32:29.988Z,56.10
2018-04-22T02:37:21.652Z,56.20
2018-04-22T02:42:12.540Z,56.10
2018-04-22T02:47:04.235Z,56.10
2018-04-22T02:51:55.124Z,56.10
2018-04-22T02:56:46.069Z,56.20
2018-04-22T03:01:36.960Z,56.10
2018-04-22T03:06:27.847Z,56.20
2018-04-22T03:11:19.479Z,56.20
2018-04-22T03:16:11.115Z,56.20
2018-04-22T03:21:02.748Z,56.30
2018-04-22T03:25:54.454Z,56.30
2018-04-22T03:30:45.336Z,56.20
2018-04-22T03:35:36.224Z,57.00
2018-04-22T03:40:27.909Z,56.30
2018-04-22T03:45:18.792Z,56.30
2018-04-22T03:50:09.676Z,56.40
2018-04-22T03:55:00.559Z,56.50
2018-04-22T03:59:51.440Z,56.40
2018-04-22T04:04:43.068Z,56.60
2018-04-22T04:09:34.744Z,56.60
2018-04-22T04:14:25.632Z,56.60
2018-04-22T04:19:28.884Z,56.60
2018-04-22T04:29:43.901Z,56.50
2018-04-22T04:34:34.808Z,56.70
2018-04-22T04:39:25.703Z,56.70
2018-04-22T04:44:16.600Z,56.70
2018-04-22T04:49:08.227Z,56.80
2018-04-22T04:53:59.866Z,56.90
2018-04-22T04:58:51.661Z,56.80
2018-04-22T05:03:42.575Z,56.80
2018-04-22T05:08:33.467Z,56.80
2018-04-22T05:13:24.356Z,56.80
2018-04-22T05:18:16.011Z,56.70
2018-04-22T05:23:06.895Z,56.70
2018-04-22T05:27:57.784Z,56.70
2018-04-22T05:32:48.668Z,56.60
2018-04-22T05:37:39.620Z,56.80
2018-04-22T05:42:30.508Z,56.90
2018-04-22T05:47:21.491Z,57.60
2018-04-22T05:52:12.375Z,57.30
2018-04-22T05:57:03.259Z,57.70
2018-04-22T06:01:54.939Z,58.30
2018-04-22T06:06:45.818Z,58.20
2018-04-22T06:11:36.707Z,58.60
2018-04-22T06:16:27.597Z,60.10
2018-04-22T06:21:18.511Z,60.00
2018-04-22T06:26:09.407Z,59.30
2018-04-22T06:31:00.295Z,59.50
2018-04-22T06:35:51.984Z,59.30
2018-04-22T06:40:42.868Z,59.30
2018-04-22T06:45:33.816Z,59.30
2018-04-22T06:50:24.713Z,59.20
2018-04-22T06:55:15.643Z,59.20
2018-04-22T07:00:06.530Z,59.20
2018-04-22T07:04:58.203Z,59.40
2018-04-22T07:09:49.092Z,59.30
2018-04-22T07:14:39.975Z,59.50
2018-04-22T07:19:30.855Z,59.60
2018-04-22T07:24:21.740Z,59.40
2018-04-22T07:29:12.647Z,59.30
2018-04-22T07:34:04.330Z,58.50
2018-04-22T07:38:55.264Z,58.50
2018-04-22T07:43:46.148Z,57.60
2018-04-22T07:48:37.080Z,57.30
2018-04-22T07:53:27.975Z,57.20
2018-04-22T07:58:18.869Z,56.70
2018-04-22T08:03:10.491Z,56.40
2018-04-22T08:08:02.907Z,56.00
2018-04-22T08:12:53.828Z,56.00
2018-04-22T08:17:44.720Z,56.10
2018-04-22T08:22:35.639Z,56.00
2018-04-22T08:27:26.575Z,56.00
2018-04-22T08:32:17.507Z,55.90
2018-04-22T08:37:08.423Z,55.30
2018-04-22T08:41:59.355Z,54.90
2018-04-22T08:46:50.263Z,55.40
2018-04-22T08:51:41.146Z,56.20
2018-04-22T08:56:32.040Z,56.70
2018-04-22T09:01:23.687Z,57.10
2018-04-22T09:06:15.367Z,57.00
2018-04-22T09:11:06.251Z,57.00
2018-04-22T09:15:57.139Z,57.60
2018-04-22T09:20:48.028Z,57.10
2018-04-22T09:25:38.942Z,56.40
2018-04-22T09:30:29.835Z,55.20
2018-04-22T09:35:20.735Z,54.90
2018-04-22T09:40:12.419Z,54.80
2018-04-22T09:45:03.315Z,54.70
2018-04-22T09:49:54.219Z,54.20
2018-04-22T09:54:45.172Z,54.50
2018-04-22T09:59:36.244Z,53.70
2018-04-22T10:04:27.881Z,53.40
2018-04-22T10:09:19.508Z,53.40
2018-04-22T10:14:11.132Z,53.80
2018-04-22T10:19:02.763Z,52.80
2018-04-22T10:23:53.659Z,52.80
2018-04-22T10:28:44.554Z,52.70
2018-04-22T10:33:35.452Z,52.00
2018-04-22T10:38:26.348Z,52.60
2018-04-22T10:43:17.987Z,52.80
2018-04-22T10:48:09.607Z,53.30
2018-04-22T10:53:00.488Z,53.20
2018-04-22T10:57:51.451Z,53.50
2018-04-22T11:02:42.288Z,53.80
2018-04-22T11:07:33.183Z,53.70
2018-04-22T11:12:24.075Z,53.50
2018-04-22T11:17:14.975Z,53.20
2018-04-22T11:22:05.877Z,52.60
2018-04-22T11:26:56.776Z,52.00
2018-04-22T11:31:47.671Z,52.00
2018-04-22T11:36:38.563Z,51.80
2018-04-22T11:41:29.471Z,51.70
2018-04-22T11:46:20.360Z,50.60
2018-04-22T11:51:11.247Z,50.00
2018-04-22T11:56:02.891Z,48.60
2018-04-22T12:00:54.537Z,48.20
2018-04-22T12:05:45.427Z,48.20
2018-04-22T12:10:37.084Z,48.50
2018-04-22T12:15:28.712Z,47.40
2018-04-22T12:20:20.352Z,46.80
2018-04-22T12:25:11.984Z,46.30
2018-04-22T12:30:03.615Z,46.10
2018-04-22T12:34:55.242Z,45.50
2018-04-22T12:39:46.166Z,45.40
2018-04-22T12:44:37.791Z,43.80
2018-04-22T12:49:28.675Z,43.80
2018-04-22T12:54:20.330Z,44.10
2018-04-22T12:59:11.241Z,44.10
2018-04-22T13:04:02.136Z,43.80
2018-04-22T13:08:53.080Z,43.80
2018-04-22T13:13:43.969Z,44.50
2018-04-22T13:18:34.881Z,44.40
2018-04-22T13:23:25.774Z,42.70
2018-04-22T13:28:17.600Z,42.20
2018-04-22T13:33:08.502Z,42.10
2018-04-22T13:37:59.508Z,42.60
2018-04-22T13:42:50.400Z,43.70
2018-04-22T13:47:41.295Z,44.80
2018-04-22T13:52:32.927Z,46.10
2018-04-22T13:57:24.559Z,46.40
2018-04-22T14:02:16.195Z,46.40
2018-04-22T14:07:07.822Z,46.00
2018-04-22T14:11:59.460Z,46.60
2018-04-22T14:16:51.088Z,47.20
2018-04-22T14:21:41.977Z,47.10
2018-04-22T14:26:32.883Z,47.20
2018-04-22T14:31:23.768Z,47.20
2018-04-22T14:36:14.655Z,47.60
2018-04-22T14:41:05.547Z,48.10
2018-04-22T14:46:03.599Z,48.00
2018-04-22T14:50:54.508Z,48.30
2018-04-22T14:55:45.402Z,48.50
2018-04-22T15:00:37.032Z,49.30
2018-04-22T15:05:27.943Z,49.30
2018-04-22T15:10:18.835Z,49.10
2018-04-22T15:15:09.722Z,48.60
2018-04-22T15:20:00.615Z,48.40
2018-04-22T15:24:52.247Z,48.20
2018-04-22T15:29:43.885Z,49.80
2018-04-22T15:34:35.531Z,48.90
2018-04-22T15:39:26.440Z,48.80
2018-04-22T15:44:18.123Z,50.70
2018-04-22T15:49:09.021Z,50.60
2018-04-22T15:53:59.899Z,49.70
2018-04-22T15:58:51.604Z,49.40
2018-04-22T16:03:42.495Z,49.50
2018-04-22T16:08:33.404Z,49.20
2018-04-22T16:13:24.348Z,49.10
2018-04-22T16:18:15.237Z,49.10
2018-04-22T16:23:06.133Z,48.60
2018-04-22T16:27:57.764Z,48.10
2018-04-22T16:32:48.659Z,48.10
2018-04-22T16:37:39.583Z,48.40
2018-04-22T16:42:30.471Z,48.20
2018-04-22T16:47:21.356Z,47.60
2018-04-22T16:52:13.035Z,47.40
2018-04-22T16:57:03.920Z,47.40
2018-04-22T17:01:54.905Z,47.70
2018-04-22T17:06:45.895Z,48.10
2018-04-22T17:11:36.812Z,48.30
2018-04-22T17:16:27.730Z,48.80
2018-04-22T17:21:18.616Z,48.80
2018-04-22T17:26:09.641Z,49.50
2018-04-22T17:31:00.535Z,50.00
2018-04-22T17:35:52.165Z,50.40
2018-04-22T17:40:43.808Z,50.40
2018-04-22T17:45:35.435Z,51.10
2018-04-22T17:50:27.059Z,50.60
2018-04-22T17:55:17.947Z,50.60
2018-04-22T18:00:08.834Z,51.10
2018-04-22T18:04:59.712Z,50.50
2018-04-22T18:09:50.589Z,50.60
2018-04-22T18:14:41.505Z,50.60
2018-04-22T18:24:50.192Z,50.50
2018-04-22T18:29:41.079Z,50.70
2018-04-22T18:34:31.972Z,50.70
2018-04-22T18:39:23.612Z,50.80
2018-04-22T18:44:15.232Z,50.80
2018-04-22T18:49:06.987Z,50.80
2018-04-22T18:53:57.991Z,50.70
2018-04-22T18:58:49.801Z,50.80
2018-04-22T19:03:40.700Z,50.70
2018-04-22T19:08:31.623Z,50.80
2018-04-22T19:13:22.547Z,50.90
2018-04-22T19:18:13.431Z,51.00
2018-04-22T19:23:04.424Z,51.10
2018-04-22T19:27:55.272Z,51.10
2018-04-22T19:32:46.143Z,51.20
2018-04-22T19:37:37.024Z,51.20
2018-04-22T19:42:27.951Z,51.30
2018-04-22T19:47:18.836Z,51.40
2018-04-22T19:52:09.723Z,51.50
2018-04-22T19:57:01.363Z,51.30
2018-04-22T20:01:53.023Z,51.80
2018-04-22T20:06:43.912Z,51.70
2018-04-22T20:11:34.802Z,51.50
2018-04-22T20:16:25.708Z,51.80
2018-04-22T20:21:16.595Z,51.70
2018-04-22T20:26:07.500Z,51.80
2018-04-22T20:30:59.131Z,51.90
2018-04-22T20:35:50.755Z,52.10
2018-04-22T20:40:41.644Z,52.00
2018-04-22T20:45:32.532Z,52.00
2018-04-22T20:50:23.407Z,52.20
2018-04-22T20:55:14.287Z,52.30
2018-04-22T21:00:05.165Z,52.30
2018-04-22T21:04:56.783Z,52.50
2018-04-22T21:09:47.671Z,52.40
2018-04-22T21:14:38.567Z,52.40
2018-04-22T21:19:29.441Z,52.40
2018-04-22T21:24:21.064Z,52.60
2018-04-22T21:29:11.938Z,52.50
2018-04-22T21:34:02.811Z,52.60
2018-04-22T21:38:54.503Z,52.60
2018-04-22T21:43:45.378Z,52.60
2018-04-22T21:48:37.054Z,52.60
2018-04-22T21:53:27.954Z,52.50
2018-04-22T21:58:18.890Z,52.50
2018-04-22T22:03:09.781Z,52.70
2018-04-22T22:08:01.421Z,53.20
2018-04-22T22:12:52.328Z,53.00
2018-04-22T22:17:43.239Z,53.20
2018-04-22T22:22:34.880Z,53.70
2018-04-22T22:27:26.521Z,54.00
2018-04-22T22:32:18.147Z,54.20
2018-04-22T22:37:09.783Z,54.20
2018-04-22T22:42:01.421Z,54.40
2018-04-22T22:46:53.057Z,54.40
2018-04-22T22:51:44.674Z,54.30
2018-04-22T22:56:35.561Z,54.20
2018-04-22T23:01:26.435Z,54.20
2018-04-22T23:06:17.391Z,54.40
2018-04-22T23:11:08.277Z,54.60
2018-04-22T23:15:59.160Z,55.10
2018-04-22T23:20:50.159Z,56.10
2018-04-22T23:25:41.034Z,57.00
2018-04-22T23:30:31.913Z,57.70
2018-04-22T23:35:22.792Z,57.50
2018-04-22T23:40:13.684Z,57.30
2018-04-22T23:45:05.334Z,57.30
2018-04-22T23:49:56.295Z,57.30
2018-04-22T23:54:47.183Z,57.30
2018-04-22T23:59:38.081Z,57.30
